createdAt,value
2018-09-11T00:02:15.672Z,95.80
2018-09-11T00:04:44.214Z,95.90
2018-09-11T00:07:13.346Z,96.30
2018-09-11T00:09:42.484Z,96.60
2018-09-11T00:12:11.626Z,96.80
2018-09-11T00:14:40.107Z,97.10
2018-09-11T00:17:08.564Z,97.20
2018-09-11T00:19:37.119Z,97.50
2018-09-11T00:22:05.591Z,97.70
2018-09-11T00:24:34.064Z,97.70
2018-09-11T00:27:02.559Z,98.00
2018-09-11T00:29:31.025Z,98.10
2018-09-11T00:31:59.545Z,98.30
2018-09-11T00:34:28.035Z,98.70
2018-09-11T00:36:56.721Z,98.60
2018-09-11T00:39:25.905Z,98.70
2018-09-11T00:41:54.391Z,98.70
2018-09-11T00:44:22.873Z,98.90
2018-09-11T00:46:51.336Z,98.90
2018-09-11T00:49:19.863Z,99.00
2018-09-11T00:51:48.330Z,99.10
2018-09-11T00:54:16.803Z,99.30
2018-09-11T00:56:45.241Z,99.60
2018-09-11T00:59:13.723Z,99.80
2018-09-11T01:01:42.200Z,99.90
2018-09-11T01:04:10.730Z,99.90
2018-09-11T01:06:39.273Z,99.90
2018-09-11T01:09:08.943Z,99.90
2018-09-11T01:11:37.498Z,99.90
2018-09-11T01:14:06.060Z,99.90
2018-09-11T01:16:34.565Z,99.90
2018-09-11T01:19:03.120Z,99.90
2018-09-11T01:21:32.342Z,99.90
2018-09-11T01:24:00.797Z,99.90
2018-09-11T01:26:29.281Z,99.90
2018-09-11T01:28:57.762Z,99.90
2018-09-11T01:31:26.280Z,99.90
2018-09-11T01:33:54.928Z,99.90
2018-09-11T01:36:23.449Z,99.90
2018-09-11T01:38:51.999Z,99.90
2018-09-11T01:41:20.442Z,99.90
2018-09-11T01:43:48.975Z,99.90
2018-09-11T01:46:17.422Z,99.90
2018-09-11T01:48:45.899Z,99.90
2018-09-11T01:51:14.330Z,99.90
2018-09-11T01:53:42.770Z,99.90
2018-09-11T01:56:11.201Z,99.90
2018-09-11T01:58:40.193Z,99.90
2018-09-11T02:01:08.655Z,99.90
2018-09-11T02:03:37.157Z,99.90
2018-09-11T02:06:05.757Z,99.90
2018-09-11T02:08:34.203Z,99.90
2018-09-11T02:11:02.721Z,99.90
2018-09-11T02:13:31.181Z,99.90
2018-09-11T02:15:59.701Z,99.90
2018-09-11T02:18:28.175Z,99.90
2018-09-11T02:20:56.647Z,99.90
2018-09-11T02:23:25.289Z,99.90
2018-09-11T02:25:53.799Z,99.90
2018-09-11T02:28:22.321Z,99.90
2018-09-11T02:30:50.844Z,99.90
2018-09-11T02:33:19.397Z,99.90
2018-09-11T02:35:47.854Z,99.90
2018-09-11T02:38:16.277Z,99.90
2018-09-11T02:40:44.711Z,99.90
2018-09-11T02:43:13.341Z,99.90
2018-09-11T02:45:41.777Z,99.90
2018-09-11T02:48:10.284Z,99.90
2018-09-11T02:50:38.798Z,99.90
2018-09-11T02:53:07.322Z,99.90
2018-09-11T02:55:35.753Z,99.90
2018-09-11T02:58:04.602Z,99.90
2018-09-11T03:00:33.135Z,99.90
2018-09-11T03:03:01.635Z,99.90
2018-09-11T03:05:30.159Z,99.90
2018-09-11T03:07:58.604Z,99.90
2018-09-11T03:10:27.997Z,99.90
2018-09-11T03:12:56.436Z,99.90
2018-09-11T03:15:24.871Z,99.90
2018-09-11T03:17:53.406Z,99.90
2018-09-11T03:20:21.910Z,99.90
2018-09-11T03:22:50.360Z,99.90
2018-09-11T03:25:18.799Z,99.90
2018-09-11T03:27:47.321Z,99.90
2018-09-11T03:30:15.785Z,99.90
2018-09-11T03:32:44.388Z,99.90
2018-09-11T03:35:12.873Z,99.90
2018-09-11T03:37:41.302Z,99.90
2018-09-11T03:40:09.737Z,99.90
2018-09-11T03:42:38.210Z,99.90
2018-09-11T03:45:06.885Z,99.90
2018-09-11T03:47:35.326Z,99.90
2018-09-11T03:50:03.873Z,99.90
2018-09-11T03:52:32.372Z,99.90
2018-09-11T03:55:00.870Z,99.90
2018-09-11T03:57:29.328Z,99.90
2018-09-11T03:59:57.766Z,99.90
2018-09-11T04:02:26.321Z,99.90
2018-09-11T04:04:54.803Z,99.90
2018-09-11T04:07:23.292Z,99.90
2018-09-11T04:09:51.733Z,99.90
2018-09-11T04:12:20.202Z,99.90
2018-09-11T04:14:48.641Z,99.90
2018-09-11T04:17:17.063Z,99.90
2018-09-11T04:19:45.479Z,99.90
2018-09-11T04:22:14.103Z,99.90
2018-09-11T04:24:42.617Z,99.90
2018-09-11T04:27:11.182Z,99.90
2018-09-11T04:29:40.281Z,99.90
2018-09-11T04:32:08.803Z,99.90
2018-09-11T04:34:37.289Z,99.90
2018-09-11T04:37:06.018Z,99.90
2018-09-11T04:39:34.491Z,99.90
2018-09-11T04:42:02.941Z,99.90
2018-09-11T04:44:31.559Z,99.90
2018-09-11T04:47:00.003Z,99.90
2018-09-11T04:49:28.521Z,99.90
2018-09-11T04:51:56.997Z,99.90
2018-09-11T04:54:25.484Z,99.90
2018-09-11T04:56:53.968Z,99.90
2018-09-11T04:59:22.489Z,99.90
2018-09-11T05:01:50.934Z,99.90
2018-09-11T05:04:19.422Z,99.90
2018-09-11T05:06:48.068Z,99.90
2018-09-11T05:09:16.533Z,99.90
2018-09-11T05:11:45.060Z,99.90
2018-09-11T05:14:13.561Z,99.90
2018-09-11T05:16:42.700Z,99.90
2018-09-11T05:19:11.216Z,99.90
2018-09-11T05:21:39.690Z,99.90
2018-09-11T05:24:08.163Z,99.90
2018-09-11T05:26:36.629Z,99.90
2018-09-11T05:29:05.100Z,99.90
2018-09-11T05:31:33.663Z,99.90
2018-09-11T05:34:02.267Z,99.90
2018-09-11T05:36:30.751Z,99.90
2018-09-11T05:38:59.299Z,99.90
2018-09-11T05:41:27.824Z,99.90
2018-09-11T05:43:56.301Z,99.90
2018-09-11T05:46:24.844Z,99.90
2018-09-11T05:48:53.382Z,99.90
2018-09-11T05:51:22.285Z,99.90
2018-09-11T05:53:50.765Z,99.90
2018-09-11T05:56:19.598Z,99.90
2018-09-11T05:58:48.202Z,99.90
2018-09-11T06:01:16.676Z,99.90
2018-09-11T06:03:45.222Z,99.90
2018-09-11T06:06:13.720Z,99.90
2018-09-11T06:08:42.292Z,99.90
2018-09-11T06:11:10.850Z,99.90
2018-09-11T06:13:39.296Z,99.90
2018-09-11T06:16:07.917Z,99.90
2018-09-11T06:18:36.408Z,99.90
2018-09-11T06:21:05.034Z,99.90
2018-09-11T06:23:33.578Z,99.90
2018-09-11T06:26:02.047Z,99.90
2018-09-11T06:28:30.543Z,99.90
2018-09-11T06:30:59.031Z,99.90
2018-09-11T06:33:27.541Z,99.90
2018-09-11T06:35:55.992Z,99.90
2018-09-11T06:38:24.461Z,99.90
2018-09-11T06:40:52.953Z,99.90
2018-09-11T06:43:21.488Z,99.90
2018-09-11T06:45:50.059Z,99.90
2018-09-11T06:48:18.569Z,99.90
2018-09-11T06:50:47.058Z,99.90
2018-09-11T06:53:15.540Z,99.90
2018-09-11T06:55:44.050Z,99.90
2018-09-11T06:58:12.521Z,99.90
2018-09-11T07:00:41.082Z,99.90
2018-09-11T07:03:09.554Z,99.90
2018-09-11T07:05:38.038Z,99.90
2018-09-11T07:08:06.542Z,99.90
2018-09-11T07:10:35.049Z,99.90
2018-09-11T07:13:03.517Z,99.90
2018-09-11T07:15:32.124Z,99.90
2018-09-11T07:18:00.611Z,99.90
2018-09-11T07:20:29.126Z,99.90
2018-09-11T07:22:57.530Z,99.90
2018-09-11T07:25:26.020Z,99.90
2018-09-11T07:27:54.480Z,99.50
2018-09-11T07:30:23.088Z,98.70
2018-09-11T07:32:51.544Z,98.00
2018-09-11T07:35:20.124Z,97.70
2018-09-11T07:37:48.637Z,97.90
2018-09-11T07:40:17.116Z,96.60
2018-09-11T07:42:45.700Z,96.30
2018-09-11T07:45:14.208Z,98.30
2018-09-11T07:47:42.652Z,98.20
2018-09-11T07:50:11.128Z,97.70
2018-09-11T07:52:41.090Z,96.90
2018-09-11T07:55:09.646Z,96.70
2018-09-11T07:57:38.195Z,96.30
2018-09-11T08:00:07.692Z,95.50
2018-09-11T08:02:36.200Z,96.10
2018-09-11T08:05:04.785Z,95.80
2018-09-11T08:07:33.263Z,95.90
2018-09-11T08:10:01.800Z,94.30
2018-09-11T08:12:30.671Z,94.50
2018-09-11T08:14:59.128Z,94.50
2018-09-11T08:17:27.707Z,95.50
2018-09-11T08:19:56.964Z,94.20
2018-09-11T08:22:25.479Z,95.10
2018-09-11T08:24:54.059Z,94.20
2018-09-11T08:27:22.511Z,94.10
2018-09-11T08:29:51.057Z,93.50
2018-09-11T08:32:20.331Z,92.30
2018-09-11T08:34:48.815Z,90.80
2018-09-11T08:37:17.610Z,90.50
2018-09-11T08:39:46.157Z,87.70
2018-09-11T08:42:14.738Z,89.50
2018-09-11T08:44:43.286Z,89.10
2018-09-11T08:47:11.720Z,85.00
2018-09-11T08:49:40.179Z,87.80
2018-09-11T08:52:08.684Z,85.30
2018-09-11T08:54:37.149Z,84.80
2018-09-11T08:57:05.917Z,82.80
2018-09-11T08:59:35.109Z,85.10
2018-09-11T09:02:03.584Z,85.40
2018-09-11T09:04:32.045Z,84.10
2018-09-11T09:07:00.499Z,84.90
2018-09-11T09:09:28.952Z,84.30
2018-09-11T09:12:02.702Z,84.10
2018-09-11T09:14:31.158Z,83.20
2018-09-11T09:16:59.719Z,82.00
2018-09-11T09:19:28.202Z,81.70
2018-09-11T09:21:56.734Z,77.90
2018-09-11T09:24:25.302Z,79.70
2018-09-11T09:26:53.772Z,83.60
2018-09-11T09:29:24.828Z,83.80
2018-09-11T09:31:53.308Z,86.70
2018-09-11T09:34:21.761Z,83.00
2018-09-11T09:36:50.401Z,83.70
2018-09-11T09:39:18.898Z,80.70
2018-09-11T09:41:47.431Z,78.80
2018-09-11T09:44:15.975Z,81.20
2018-09-11T09:46:44.418Z,82.50
2018-09-11T09:49:12.865Z,82.80
2018-09-11T09:51:41.309Z,82.70
2018-09-11T09:54:09.781Z,80.80
2018-09-11T09:56:38.274Z,81.00
2018-09-11T09:59:06.738Z,80.00
2018-09-11T10:01:40.608Z,77.50
2018-09-11T10:04:09.162Z,77.00
2018-09-11T10:06:37.747Z,77.60
2018-09-11T10:09:08.436Z,78.40
2018-09-11T10:11:37.904Z,80.00
2018-09-11T10:14:06.418Z,77.80
2018-09-11T10:16:34.858Z,77.80
2018-09-11T10:19:03.586Z,77.80
2018-09-11T10:21:32.027Z,78.70
2018-09-11T10:24:00.513Z,80.10
2018-09-11T10:26:28.977Z,78.30
2018-09-11T10:28:57.415Z,77.60
2018-09-11T10:31:26.018Z,80.40
2018-09-11T10:33:54.589Z,81.70
2018-09-11T10:36:22.956Z,77.00
2018-09-11T10:38:51.438Z,74.60
2018-09-11T10:41:20.631Z,73.80
2018-09-11T10:43:49.064Z,74.60
2018-09-11T10:46:17.630Z,73.70
2018-09-11T10:48:46.452Z,72.00
2018-09-11T10:51:15.009Z,73.20
2018-09-11T10:53:43.460Z,74.20
2018-09-11T10:56:11.939Z,71.80
2018-09-11T10:58:40.552Z,70.20
2018-09-11T11:01:09.223Z,73.70
2018-09-11T11:03:37.681Z,71.00
2018-09-11T11:06:06.245Z,70.20
2018-09-11T11:08:34.695Z,70.00
2018-09-11T11:11:03.259Z,69.20
2018-09-11T11:13:31.807Z,70.90
2018-09-11T11:16:00.320Z,71.20
2018-09-11T11:18:28.834Z,72.70
2018-09-11T11:20:57.309Z,71.00
2018-09-11T11:23:25.740Z,71.60
2018-09-11T11:25:54.245Z,70.90
2018-09-11T11:28:22.720Z,68.20
2018-09-11T11:30:51.169Z,67.80
2018-09-11T11:33:19.669Z,66.70
2018-09-11T11:35:48.126Z,66.00
2018-09-11T11:38:16.642Z,69.10
2018-09-11T11:40:44.939Z,72.60
2018-09-11T11:43:13.428Z,68.60
2018-09-11T11:45:41.909Z,69.80
2018-09-11T11:48:10.424Z,70.30
2018-09-11T11:50:38.959Z,69.20
2018-09-11T11:53:07.504Z,68.70
2018-09-11T11:55:36.142Z,68.30
2018-09-11T11:58:04.695Z,67.50
2018-09-11T12:00:33.149Z,65.00
2018-09-11T12:03:01.650Z,65.80
2018-09-11T12:05:30.110Z,64.30
2018-09-11T12:07:58.577Z,66.20
2018-09-11T12:10:27.116Z,64.60
2018-09-11T12:12:55.587Z,65.70
2018-09-11T12:15:24.053Z,63.20
2018-09-11T12:17:52.596Z,61.00
2018-09-11T12:20:21.063Z,61.50
2018-09-11T12:22:49.699Z,63.90
2018-09-11T12:25:19.414Z,62.20
2018-09-11T12:27:47.959Z,62.00
2018-09-11T12:30:16.463Z,63.20
2018-09-11T12:32:44.901Z,65.10
2018-09-11T12:35:13.421Z,65.80
2018-09-11T12:37:41.947Z,63.40
2018-09-11T12:40:10.619Z,62.40
2018-09-11T12:42:39.191Z,63.80
2018-09-11T12:45:07.849Z,61.70
2018-09-11T12:47:36.591Z,64.80
2018-09-11T12:50:04.918Z,63.20
2018-09-11T12:52:33.500Z,63.20
2018-09-11T12:55:02.023Z,64.50
2018-09-11T12:57:30.512Z,61.60
2018-09-11T12:59:59.115Z,63.00
2018-09-11T13:02:27.839Z,61.10
2018-09-11T13:04:56.477Z,62.20
2018-09-11T13:07:24.923Z,62.70
2018-09-11T13:09:53.557Z,58.90
2018-09-11T13:12:22.063Z,59.80
2018-09-11T13:14:51.455Z,59.50
2018-09-11T13:17:19.936Z,60.70
2018-09-11T13:19:48.433Z,58.70
2018-09-11T13:22:16.957Z,60.10
2018-09-11T13:24:45.555Z,60.20
2018-09-11T13:27:14.038Z,59.40
2018-09-11T13:29:42.559Z,58.40
2018-09-11T13:32:11.105Z,60.20
2018-09-11T13:34:39.671Z,57.50
2018-09-11T13:37:08.280Z,57.40
2018-09-11T13:39:36.797Z,57.40
2018-09-11T13:42:05.312Z,56.90
2018-09-11T13:44:33.908Z,57.70
2018-09-11T13:47:02.425Z,56.40
2018-09-11T13:49:30.902Z,59.50
2018-09-11T13:51:59.486Z,57.70
2018-09-11T13:54:28.058Z,57.30
2018-09-11T13:56:56.544Z,57.30
2018-09-11T13:59:25.033Z,58.70
2018-09-11T14:01:53.574Z,58.00
2018-09-11T14:04:22.070Z,58.20
2018-09-11T14:06:50.626Z,57.00
2018-09-11T14:09:19.091Z,58.10
2018-09-11T14:11:47.613Z,55.50
2018-09-11T14:14:16.607Z,58.60
2018-09-11T14:16:45.817Z,56.30
2018-09-11T14:19:14.311Z,56.70
2018-09-11T14:21:42.791Z,55.10
2018-09-11T14:24:11.411Z,54.40
2018-09-11T14:26:39.980Z,56.00
2018-09-11T14:29:08.478Z,57.50
2018-09-11T14:31:37.052Z,57.50
2018-09-11T14:34:05.665Z,59.30
2018-09-11T14:36:34.119Z,55.50
2018-09-11T14:39:02.655Z,57.10
2018-09-11T14:41:31.191Z,60.80
2018-09-11T14:43:59.698Z,57.10
2018-09-11T14:46:28.215Z,57.50
2018-09-11T14:48:56.681Z,56.10
2018-09-11T14:51:25.123Z,55.30
2018-09-11T14:53:53.629Z,55.70
2018-09-11T14:56:22.560Z,55.90
2018-09-11T14:58:51.277Z,56.30
2018-09-11T15:01:19.805Z,57.50
2018-09-11T15:03:48.296Z,55.80
2018-09-11T15:06:16.791Z,54.40
2018-09-11T15:08:45.417Z,55.80
2018-09-11T15:11:13.905Z,55.40
2018-09-11T15:13:42.411Z,56.80
2018-09-11T15:16:10.875Z,55.10
2018-09-11T15:18:39.394Z,57.00
2018-09-11T15:21:07.838Z,53.80
2018-09-11T15:23:36.380Z,54.00
2018-09-11T15:26:04.894Z,55.20
2018-09-11T15:28:33.898Z,55.50
2018-09-11T15:31:02.362Z,55.50
2018-09-11T15:33:30.840Z,56.30
2018-09-11T15:35:59.357Z,57.90
2018-09-11T15:38:27.909Z,59.90
2018-09-11T15:40:57.008Z,58.80
2018-09-11T15:43:25.474Z,56.80
2018-09-11T15:45:53.985Z,57.30
2018-09-11T15:48:22.475Z,59.90
2018-09-11T15:50:50.919Z,58.00
2018-09-11T15:53:19.393Z,58.50
2018-09-11T15:55:47.998Z,57.40
2018-09-11T15:58:16.591Z,56.80
2018-09-11T16:00:45.077Z,58.10
2018-09-11T16:03:13.548Z,58.10
2018-09-11T16:05:42.044Z,64.10
2018-09-11T16:08:10.687Z,59.20
2018-09-11T16:10:39.190Z,60.20
2018-09-11T16:13:08.470Z,60.80
2018-09-11T16:15:37.557Z,62.80
2018-09-11T16:18:06.028Z,62.30
2018-09-11T16:20:34.524Z,61.60
2018-09-11T16:23:02.996Z,63.50
2018-09-11T16:25:31.488Z,64.40
2018-09-11T16:27:59.957Z,61.10
2018-09-11T16:30:28.477Z,64.50
2018-09-11T16:32:56.924Z,64.00
2018-09-11T16:35:25.294Z,63.30
2018-09-11T16:37:53.837Z,64.20
2018-09-11T16:40:22.362Z,65.80
2018-09-11T16:42:51.131Z,65.40
2018-09-11T16:45:19.602Z,66.00
2018-09-11T16:47:48.054Z,66.50
2018-09-11T16:50:16.561Z,68.00
2018-09-11T16:52:45.033Z,68.70
2018-09-11T16:55:13.485Z,68.40
2018-09-11T16:57:42.002Z,69.90
2018-09-11T17:00:10.551Z,70.00
2018-09-11T17:02:38.903Z,70.50
2018-09-11T17:05:07.436Z,70.00
2018-09-11T17:07:35.792Z,70.50
2018-09-11T17:10:04.315Z,70.40
2018-09-11T17:12:32.834Z,71.30
2018-09-11T17:15:01.178Z,71.40
2018-09-11T17:17:29.690Z,72.00
2018-09-11T17:19:58.339Z,71.20
2018-09-11T17:22:27.004Z,71.40
2018-09-11T17:24:55.534Z,72.10
2018-09-11T17:27:24.091Z,72.60
2018-09-11T17:29:52.651Z,73.00
2018-09-11T17:32:21.712Z,73.50
2018-09-11T17:34:50.580Z,74.20
2018-09-11T17:37:19.161Z,74.10
2018-09-11T17:39:48.263Z,74.10
2018-09-11T17:42:16.883Z,74.40
2018-09-11T17:44:45.359Z,75.00
2018-09-11T17:47:14.515Z,74.60
2018-09-11T17:49:43.073Z,75.00
2018-09-11T17:52:11.578Z,75.40
2018-09-11T17:54:40.098Z,76.10
2018-09-11T17:57:08.694Z,76.80
2018-09-11T17:59:37.268Z,77.20
2018-09-11T18:02:06.125Z,78.40
2018-09-11T18:04:35.085Z,79.10
2018-09-11T18:07:03.604Z,79.80
2018-09-11T18:09:32.656Z,80.60
2018-09-11T18:12:01.264Z,81.10
2018-09-11T18:14:30.414Z,82.00
2018-09-11T18:16:59.164Z,82.20
2018-09-11T18:19:27.801Z,82.90
2018-09-11T18:21:56.847Z,83.30
2018-09-11T18:24:25.542Z,83.70
2018-09-11T18:26:54.248Z,84.50
2018-09-11T18:29:23.884Z,85.10
2018-09-11T18:31:53.867Z,86.30
2018-09-11T18:34:23.205Z,88.00
2018-09-11T18:36:52.362Z,89.80
2018-09-11T18:39:21.657Z,90.20
2018-09-11T18:41:51.173Z,90.90
2018-09-11T18:44:20.529Z,91.90
2018-09-11T18:46:49.934Z,92.70
2018-09-11T18:49:19.235Z,93.00
2018-09-11T18:51:48.733Z,92.40
2018-09-11T18:54:17.934Z,92.60
2018-09-11T18:56:47.577Z,92.40
2018-09-11T18:59:16.798Z,92.10
2018-09-11T19:01:46.882Z,92.10
2018-09-11T19:04:16.296Z,92.20
2018-09-11T19:06:46.010Z,92.40
2018-09-11T19:09:15.343Z,92.50
2018-09-11T19:11:44.618Z,92.70
2018-09-11T19:14:13.919Z,93.00
2018-09-11T19:16:43.672Z,93.40
2018-09-11T19:19:13.453Z,93.50
2018-09-11T19:21:43.084Z,93.70
2018-09-11T19:24:12.395Z,93.90
2018-09-11T19:26:41.772Z,94.20
2018-09-11T19:29:11.252Z,94.60
2018-09-11T19:31:40.995Z,94.70
2018-09-11T19:34:10.258Z,95.20
2018-09-11T19:36:39.415Z,95.40
2018-09-11T19:39:09.480Z,95.70
2018-09-11T19:41:38.609Z,95.90
2018-09-11T19:44:07.673Z,96.10
2018-09-11T19:46:36.446Z,96.50
2018-09-11T19:49:05.944Z,96.90
2018-09-11T19:51:34.817Z,97.70
2018-09-11T19:54:04.197Z,98.60
2018-09-11T19:56:33.267Z,98.50
2018-09-11T19:59:02.388Z,97.60
2018-09-11T20:01:31.566Z,97.20
2018-09-11T20:04:00.530Z,97.30
2018-09-11T20:06:30.289Z,98.40
2018-09-11T20:09:00.088Z,97.40
2018-09-11T20:11:30.130Z,98.00
2018-09-11T20:13:59.227Z,98.30
2018-09-11T20:16:28.060Z,98.20
2018-09-11T20:18:57.585Z,98.10
2018-09-11T20:21:27.296Z,98.50
2018-09-11T20:23:57.134Z,98.30
2018-09-11T20:26:25.977Z,98.50
2018-09-11T20:28:56.043Z,98.60
2018-09-11T20:31:24.903Z,98.60
2018-09-11T20:33:54.560Z,99.30
2018-09-11T20:36:23.963Z,99.60
2018-09-11T20:38:53.847Z,99.90
2018-09-11T20:41:22.423Z,99.90
2018-09-11T20:43:51.765Z,99.90
2018-09-11T20:46:20.284Z,99.90
2018-09-11T20:48:48.908Z,99.70
2018-09-11T20:51:18.089Z,99.10
2018-09-11T20:53:46.564Z,99.10
2018-09-11T20:56:15.118Z,99.80
2018-09-11T20:58:43.728Z,99.60
2018-09-11T21:01:12.355Z,99.60
2018-09-11T21:03:40.990Z,99.90
2018-09-11T21:06:09.669Z,99.80
2018-09-11T21:08:38.219Z,99.70
2018-09-11T21:11:06.813Z,99.60
2018-09-11T21:13:35.321Z,99.50
2018-09-11T21:16:03.843Z,99.90
2018-09-11T21:18:32.354Z,99.90
2018-09-11T21:21:01.432Z,99.90
2018-09-11T21:23:29.929Z,99.90
2018-09-11T21:25:58.417Z,99.90
2018-09-11T21:28:26.943Z,99.90
2018-09-11T21:30:56.260Z,99.90
2018-09-11T21:33:24.907Z,99.90
2018-09-11T21:35:53.970Z,99.90
2018-09-11T21:38:22.456Z,99.90
2018-09-11T21:40:50.921Z,99.90
2018-09-11T21:43:19.421Z,99.90
2018-09-11T21:45:47.929Z,99.90
2018-09-11T21:48:16.515Z,99.90
2018-09-11T21:50:45.080Z,99.90
2018-09-11T21:53:13.549Z,99.90
2018-09-11T21:55:42.766Z,99.90
2018-09-11T21:58:11.438Z,99.90
2018-09-11T22:00:45.348Z,99.90
2018-09-11T22:03:13.827Z,99.90
2018-09-11T22:05:42.321Z,99.90
2018-09-11T22:08:10.780Z,99.90
2018-09-11T22:10:39.371Z,99.90
2018-09-11T22:13:07.834Z,99.90
2018-09-11T22:15:36.439Z,99.90
2018-09-11T22:18:05.043Z,99.90
2018-09-11T22:20:33.508Z,99.90
2018-09-11T22:23:02.029Z,99.90
2018-09-11T22:25:30.482Z,99.90
2018-09-11T22:27:59.351Z,99.90
2018-09-11T22:30:27.826Z,99.90
2018-09-11T22:32:56.479Z,99.90
2018-09-11T22:35:25.043Z,99.90
2018-09-11T22:37:54.399Z,99.90
2018-09-11T22:40:22.925Z,99.90
2018-09-11T22:42:52.793Z,99.90
2018-09-11T22:45:21.345Z,99.90
2018-09-11T22:47:49.933Z,99.90
2018-09-11T22:50:18.622Z,99.90
2018-09-11T22:52:47.165Z,99.90
2018-09-11T22:55:16.805Z,99.90
2018-09-11T22:57:45.411Z,99.90
2018-09-11T23:00:14.070Z,99.90
2018-09-11T23:02:42.634Z,99.90
2018-09-11T23:05:11.205Z,99.90
2018-09-11T23:07:39.765Z,99.90
2018-09-11T23:10:08.392Z,99.90
2018-09-11T23:12:37.691Z,99.90
2018-09-11T23:15:06.308Z,99.90
2018-09-11T23:17:34.940Z,99.90
2018-09-11T23:20:03.496Z,99.90
2018-09-11T23:22:32.047Z,99.90
2018-09-11T23:25:01.053Z,99.90
2018-09-11T23:27:29.532Z,99.90
2018-09-11T23:29:57.952Z,99.90
2018-09-11T23:32:26.422Z,99.90
2018-09-11T23:34:54.906Z,99.90
2018-09-11T23:37:23.364Z,99.90
2018-09-11T23:39:51.921Z,99.90
2018-09-11T23:42:20.434Z,99.90
2018-09-11T23:44:48.871Z,99.90
2018-09-11T23:47:17.384Z,99.90
2018-09-11T23:49:45.848Z,99.90
2018-09-11T23:52:14.289Z,99.90
2018-09-11T23:54:42.753Z,99.90
2018-09-11T23:57:11.247Z,99.90
2018-09-11T23:59:39.719Z,99.90
